createdAt,value
2019-05-30T00:00:16.858Z,99.90
2019-05-30T00:02:40.135Z,99.90
2019-05-30T00:05:08.743Z,99.90
2019-05-30T00:07:37.161Z,99.90
2019-05-30T00:10:06.519Z,99.90
2019-05-30T00:12:34.954Z,99.90
2019-05-30T00:15:06.462Z,99.90
2019-05-30T00:17:35.081Z,99.90
2019-05-30T00:20:05.806Z,99.90
2019-05-30T00:22:34.270Z,99.90
2019-05-30T00:25:04.237Z,99.90
2019-05-30T00:27:32.894Z,99.90
2019-05-30T00:30:01.585Z,99.90
2019-05-30T00:32:30.032Z,99.90
2019-05-30T00:34:59.582Z,99.90
2019-05-30T00:37:28.191Z,99.90
2019-05-30T00:39:57.749Z,99.90
2019-05-30T00:42:26.390Z,99.90
2019-05-30T00:44:55.833Z,99.90
2019-05-30T00:47:24.432Z,99.90
2019-05-30T00:49:52.923Z,99.90
2019-05-30T00:52:21.351Z,99.90
2019-05-30T00:54:49.782Z,99.90
2019-05-30T00:57:18.225Z,99.90
2019-05-30T00:59:46.656Z,99.90
2019-05-30T01:02:15.098Z,99.90
2019-05-30T01:04:43.539Z,99.90
2019-05-30T01:07:11.980Z,99.90
2019-05-30T01:09:40.406Z,99.90
2019-05-30T01:12:08.918Z,99.90
2019-05-30T01:14:37.380Z,99.90
2019-05-30T01:17:05.875Z,99.90
2019-05-30T01:19:34.298Z,99.90
2019-05-30T01:22:03.432Z,99.90
2019-05-30T01:24:32.051Z,99.90
2019-05-30T01:27:01.335Z,99.90
2019-05-30T01:29:29.954Z,99.90
2019-05-30T01:32:00.026Z,99.90
2019-05-30T01:34:28.452Z,99.90
2019-05-30T01:36:57.574Z,99.90
2019-05-30T01:39:26.098Z,99.90
2019-05-30T01:41:54.564Z,99.90
2019-05-30T01:44:23.005Z,99.90
2019-05-30T01:46:51.570Z,99.90
2019-05-30T01:49:20.065Z,99.90
2019-05-30T01:51:48.501Z,99.90
2019-05-30T01:54:16.956Z,99.90
2019-05-30T01:56:45.486Z,99.90
2019-05-30T01:59:13.912Z,99.90
2019-05-30T02:01:42.351Z,99.90
2019-05-30T02:04:10.777Z,99.90
2019-05-30T02:06:39.216Z,99.90
2019-05-30T02:09:07.715Z,99.90
2019-05-30T02:11:36.151Z,99.90
2019-05-30T02:14:05.699Z,99.90
2019-05-30T02:16:34.254Z,99.90
2019-05-30T02:19:03.724Z,99.90
2019-05-30T02:21:32.299Z,99.90
2019-05-30T02:24:01.779Z,99.90
2019-05-30T02:26:30.362Z,99.90
2019-05-30T02:28:59.924Z,99.90
2019-05-30T02:31:38.904Z,99.90
2019-05-30T02:33:58.508Z,99.90
2019-05-30T02:36:26.934Z,99.90
2019-05-30T02:38:55.373Z,99.90
2019-05-30T02:41:23.793Z,99.90
2019-05-30T02:43:52.224Z,99.90
2019-05-30T02:46:20.667Z,99.90
2019-05-30T02:48:59.084Z,99.90
2019-05-30T02:51:19.305Z,99.90
2019-05-30T02:53:47.743Z,99.90
2019-05-30T02:56:16.156Z,99.90
2019-05-30T02:58:44.595Z,99.90
2019-05-30T03:01:14.554Z,99.90
2019-05-30T03:03:43.172Z,99.90
2019-05-30T03:06:13.731Z,99.90
2019-05-30T03:08:41.970Z,99.90
2019-05-30T03:11:13.575Z,99.90
2019-05-30T03:13:40.789Z,99.90
2019-05-30T03:16:11.204Z,99.90
2019-05-30T03:18:39.381Z,99.90
2019-05-30T03:21:10.291Z,99.90
2019-05-30T03:23:37.953Z,99.90
2019-05-30T03:26:09.161Z,99.90
2019-05-30T03:28:36.610Z,99.90
2019-05-30T03:31:14.039Z,99.90
2019-05-30T03:33:56.861Z,99.90
2019-05-30T03:36:30.936Z,99.90
2019-05-30T03:38:55.428Z,99.90
2019-05-30T03:41:23.849Z,99.90
2019-05-30T03:43:52.276Z,99.90
2019-05-30T03:46:23.768Z,99.90
2019-05-30T03:48:55.133Z,99.90
2019-05-30T03:51:26.066Z,99.90
2019-05-30T03:53:55.357Z,99.90
2019-05-30T03:56:29.722Z,99.90
2019-05-30T03:59:43.266Z,99.90
2019-05-30T04:02:57.338Z,99.90
2019-05-30T04:05:24.695Z,99.90
2019-05-30T04:07:55.689Z,99.90
2019-05-30T04:10:27.193Z,99.90
2019-05-30T04:12:58.694Z,99.90
2019-05-30T04:15:34.293Z,99.90
2019-05-30T04:18:02.795Z,99.90
2019-05-30T04:20:31.760Z,99.90
2019-05-30T04:23:00.179Z,99.90
2019-05-30T04:25:28.613Z,99.90
2019-05-30T04:27:57.033Z,99.90
2019-05-30T04:30:25.470Z,99.90
2019-05-30T04:32:53.899Z,99.90
2019-05-30T04:35:22.315Z,99.90
2019-05-30T04:37:50.757Z,99.90
2019-05-30T04:40:19.747Z,99.90
2019-05-30T04:42:48.353Z,99.90
2019-05-30T04:45:18.044Z,99.90
2019-05-30T04:47:46.715Z,99.90
2019-05-30T04:50:16.354Z,99.90
2019-05-30T04:52:44.987Z,99.90
2019-05-30T04:55:15.436Z,99.90
2019-05-30T04:57:43.622Z,99.90
2019-05-30T05:00:12.999Z,99.90
2019-05-30T05:02:41.628Z,99.90
2019-05-30T05:05:11.384Z,99.90
2019-05-30T05:07:40.106Z,99.90
2019-05-30T05:10:08.786Z,99.90
2019-05-30T05:12:37.195Z,99.90
2019-05-30T05:15:06.870Z,99.90
2019-05-30T05:17:35.307Z,99.90
2019-05-30T05:20:06.338Z,99.90
2019-05-30T05:22:34.752Z,99.90
2019-05-30T05:25:03.957Z,99.90
2019-05-30T05:27:32.380Z,99.90
2019-05-30T05:30:00.825Z,99.90
2019-05-30T05:32:29.252Z,99.90
2019-05-30T05:34:57.702Z,99.90
2019-05-30T05:37:27.366Z,99.90
2019-05-30T05:39:55.983Z,99.90
2019-05-30T05:42:28.353Z,99.90
2019-05-30T05:44:54.638Z,99.90
2019-05-30T05:47:23.137Z,99.90
2019-05-30T05:49:51.568Z,99.90
2019-05-30T05:52:20.713Z,99.90
2019-05-30T05:54:49.314Z,99.90
2019-05-30T05:57:18.868Z,99.90
2019-05-30T05:59:47.370Z,99.90
2019-05-30T06:02:17.477Z,99.90
2019-05-30T06:04:46.036Z,99.90
2019-05-30T06:07:14.472Z,99.90
2019-05-30T06:09:42.952Z,99.90
2019-05-30T06:12:11.370Z,99.90
2019-05-30T06:14:39.801Z,99.90
2019-05-30T06:17:08.231Z,99.90
2019-05-30T06:19:45.933Z,99.90
2019-05-30T06:22:06.805Z,99.90
2019-05-30T06:24:35.233Z,99.90
2019-05-30T06:27:03.743Z,99.80
2019-05-30T06:29:32.163Z,99.90
2019-05-30T06:32:00.593Z,99.90
2019-05-30T06:34:38.450Z,99.50
2019-05-30T06:36:59.181Z,99.30
2019-05-30T06:39:27.696Z,99.30
2019-05-30T06:41:56.122Z,99.40
2019-05-30T06:44:24.544Z,99.20
2019-05-30T06:46:53.146Z,98.80
2019-05-30T06:49:22.767Z,98.70
2019-05-30T06:51:51.551Z,98.30
2019-05-30T06:54:21.458Z,98.00
2019-05-30T06:56:50.588Z,97.80
2019-05-30T06:59:19.029Z,97.60
2019-05-30T07:01:47.467Z,96.90
2019-05-30T07:04:16.478Z,96.90
2019-05-30T07:06:45.411Z,96.70
2019-05-30T07:09:14.140Z,95.90
2019-05-30T07:11:42.576Z,96.20
2019-05-30T07:14:11.005Z,95.80
2019-05-30T07:16:39.446Z,96.00
2019-05-30T07:19:07.872Z,95.80
2019-05-30T07:21:36.308Z,95.30
2019-05-30T07:24:04.972Z,95.10
2019-05-30T07:26:34.069Z,94.40
2019-05-30T07:29:02.712Z,94.40
2019-05-30T07:31:32.221Z,94.10
2019-05-30T07:34:00.773Z,93.00
2019-05-30T07:36:30.309Z,92.10
2019-05-30T07:38:58.983Z,92.20
2019-05-30T07:41:28.625Z,92.00
2019-05-30T07:43:57.260Z,92.10
2019-05-30T07:46:26.735Z,92.60
2019-05-30T07:48:55.393Z,92.50
2019-05-30T07:51:24.601Z,91.60
2019-05-30T07:53:53.153Z,89.10
2019-05-30T07:56:21.595Z,87.00
2019-05-30T07:58:50.023Z,85.30
2019-05-30T08:01:18.467Z,85.80
2019-05-30T08:03:46.951Z,84.30
2019-05-30T08:06:15.396Z,79.20
2019-05-30T08:08:43.869Z,81.70
2019-05-30T08:11:12.307Z,79.40
2019-05-30T08:13:40.745Z,80.00
2019-05-30T08:16:09.198Z,81.90
2019-05-30T08:18:37.943Z,82.70
2019-05-30T08:21:06.537Z,80.90
2019-05-30T08:23:36.215Z,81.00
2019-05-30T08:26:04.856Z,78.00
2019-05-30T08:28:34.302Z,79.30
2019-05-30T08:31:02.817Z,78.40
2019-05-30T08:33:31.454Z,79.30
2019-05-30T08:36:00.006Z,77.80
2019-05-30T08:38:29.009Z,79.00
2019-05-30T08:40:57.601Z,76.30
2019-05-30T08:43:26.058Z,75.60
2019-05-30T08:45:54.516Z,77.30
2019-05-30T08:48:22.956Z,75.00
2019-05-30T08:50:51.394Z,77.50
2019-05-30T08:53:19.836Z,77.40
2019-05-30T08:55:48.256Z,74.70
2019-05-30T08:58:16.710Z,75.70
2019-05-30T09:00:45.134Z,75.50
2019-05-30T09:03:13.588Z,75.80
2019-05-30T09:05:58.175Z,72.40
2019-05-30T09:08:12.658Z,71.70
2019-05-30T09:10:44.440Z,71.70
2019-05-30T09:13:12.948Z,70.70
2019-05-30T09:15:42.886Z,71.40
2019-05-30T09:18:11.553Z,72.80
2019-05-30T09:20:41.774Z,70.50
2019-05-30T09:23:10.154Z,71.70
2019-05-30T09:25:38.918Z,72.10
2019-05-30T09:28:08.400Z,72.80
2019-05-30T09:30:39.331Z,70.90
2019-05-30T09:33:06.993Z,65.70
2019-05-30T09:35:35.437Z,66.90
2019-05-30T09:38:03.948Z,67.00
2019-05-30T09:40:33.989Z,65.80
2019-05-30T09:43:02.411Z,67.60
2019-05-30T09:45:32.776Z,66.50
2019-05-30T09:48:01.266Z,63.90
2019-05-30T09:50:29.759Z,62.10
2019-05-30T09:52:58.184Z,62.60
2019-05-30T09:55:26.661Z,62.30
2019-05-30T09:57:55.106Z,62.60
2019-05-30T10:00:25.488Z,64.60
2019-05-30T10:02:53.963Z,66.30
2019-05-30T10:05:24.648Z,61.90
2019-05-30T10:07:53.106Z,62.10
2019-05-30T10:10:21.803Z,61.70
2019-05-30T10:12:50.389Z,62.00
2019-05-30T10:15:20.081Z,62.20
2019-05-30T10:17:51.796Z,59.20
2019-05-30T10:20:19.268Z,58.90
2019-05-30T10:22:49.059Z,57.90
2019-05-30T10:25:18.621Z,59.50
2019-05-30T10:27:48.885Z,60.20
2019-05-30T10:30:17.864Z,57.50
2019-05-30T10:32:47.301Z,59.00
2019-05-30T10:35:16.603Z,57.90
2019-05-30T10:37:46.754Z,56.80
2019-05-30T10:40:16.579Z,56.00
2019-05-30T10:42:46.199Z,56.50
2019-05-30T10:45:17.149Z,56.60
2019-05-30T10:47:47.353Z,54.80
2019-05-30T10:50:16.605Z,55.10
2019-05-30T10:52:45.348Z,55.30
2019-05-30T10:55:14.766Z,55.80
2019-05-30T10:57:43.218Z,56.30
2019-05-30T11:00:14.595Z,57.90
2019-05-30T11:02:43.063Z,56.30
2019-05-30T11:05:13.649Z,57.10
2019-05-30T11:07:54.709Z,56.30
2019-05-30T11:10:38.868Z,55.50
2019-05-30T11:13:09.920Z,53.80
2019-05-30T11:15:38.517Z,54.40
2019-05-30T11:18:07.061Z,54.50
2019-05-30T11:20:35.501Z,53.80
2019-05-30T11:23:04.324Z,52.60
2019-05-30T11:25:33.320Z,53.80
2019-05-30T11:28:01.770Z,51.70
2019-05-30T11:30:30.448Z,51.40
2019-05-30T11:32:59.460Z,49.80
2019-05-30T11:35:28.116Z,51.10
2019-05-30T11:37:57.263Z,51.60
2019-05-30T11:40:25.792Z,50.00
2019-05-30T11:42:55.414Z,51.70
2019-05-30T11:45:24.407Z,50.70
2019-05-30T11:47:53.795Z,50.10
2019-05-30T11:50:23.941Z,50.00
2019-05-30T11:52:53.678Z,50.10
2019-05-30T11:55:22.387Z,49.20
2019-05-30T11:57:51.975Z,48.20
2019-05-30T12:00:21.044Z,47.90
2019-05-30T12:02:50.176Z,46.90
2019-05-30T12:05:20.338Z,46.70
2019-05-30T12:07:48.863Z,44.70
2019-05-30T12:10:19.040Z,43.90
2019-05-30T12:12:47.837Z,41.90
2019-05-30T12:15:16.332Z,40.50
2019-05-30T12:17:44.774Z,42.30
2019-05-30T12:20:13.424Z,41.70
2019-05-30T12:22:41.862Z,42.40
2019-05-30T12:25:10.642Z,40.50
2019-05-30T12:27:39.139Z,40.20
2019-05-30T12:30:09.108Z,36.90
2019-05-30T12:32:37.564Z,37.00
2019-05-30T12:35:09.887Z,35.80
2019-05-30T12:37:53.544Z,33.60
2019-05-30T12:40:09.909Z,33.30
2019-05-30T12:42:38.488Z,29.90
2019-05-30T12:45:08.648Z,29.90
2019-05-30T12:47:37.076Z,32.90
2019-05-30T12:50:07.939Z,33.50
2019-05-30T12:52:36.372Z,31.20
2019-05-30T12:55:08.995Z,30.10
2019-05-30T12:57:37.427Z,29.00
2019-05-30T13:00:17.812Z,29.90
2019-05-30T13:02:41.722Z,29.20
2019-05-30T13:05:10.493Z,27.50
2019-05-30T13:07:38.936Z,28.60
2019-05-30T13:10:09.302Z,28.50
2019-05-30T13:12:37.830Z,28.60
2019-05-30T13:15:08.194Z,29.40
2019-05-30T13:17:36.688Z,29.80
2019-05-30T13:20:09.886Z,31.90
2019-05-30T13:22:38.317Z,30.20
2019-05-30T13:25:11.014Z,30.40
2019-05-30T13:27:39.454Z,30.10
2019-05-30T13:30:09.320Z,29.50
2019-05-30T13:32:37.796Z,28.30
2019-05-30T13:35:07.895Z,27.90
2019-05-30T13:37:36.424Z,27.90
2019-05-30T13:40:23.675Z,27.20
2019-05-30T13:42:39.106Z,27.00
2019-05-30T13:45:08.929Z,27.10
2019-05-30T13:47:38.207Z,26.50
2019-05-30T13:50:14.346Z,26.20
2019-05-30T13:52:42.884Z,25.40
2019-05-30T13:55:12.399Z,25.70
2019-05-30T13:57:40.903Z,27.70
2019-05-30T14:00:10.687Z,28.20
2019-05-30T14:02:39.290Z,27.20
2019-05-30T14:05:08.484Z,28.20
2019-05-30T14:07:37.040Z,29.00
2019-05-30T14:10:08.556Z,29.10
2019-05-30T14:12:37.200Z,27.50
2019-05-30T14:15:10.435Z,28.90
2019-05-30T14:17:38.836Z,28.20
2019-05-30T14:20:09.077Z,27.30
2019-05-30T14:22:37.725Z,26.70
2019-05-30T14:25:09.725Z,25.50
2019-05-30T14:27:38.605Z,25.10
2019-05-30T14:30:08.980Z,25.30
2019-05-30T14:32:37.804Z,25.40
2019-05-30T14:35:08.983Z,24.60
2019-05-30T14:37:37.430Z,24.70
2019-05-30T14:40:11.212Z,24.50
2019-05-30T14:42:39.725Z,24.00
2019-05-30T14:45:08.776Z,24.80
2019-05-30T14:47:37.209Z,24.50
2019-05-30T14:50:08.880Z,23.00
2019-05-30T14:52:37.393Z,23.10
2019-05-30T14:55:06.964Z,23.00
2019-05-30T14:57:35.436Z,21.90
2019-05-30T15:00:07.471Z,23.10
2019-05-30T15:02:36.231Z,22.10
2019-05-30T15:05:05.441Z,22.30
2019-05-30T15:07:34.101Z,21.80
2019-05-30T15:10:02.548Z,20.90
2019-05-30T15:12:30.988Z,20.50
2019-05-30T15:14:59.420Z,21.00
2019-05-30T15:17:27.864Z,21.80
2019-05-30T15:19:56.320Z,21.10
2019-05-30T15:22:24.768Z,21.80
2019-05-30T15:24:53.223Z,21.50
2019-05-30T15:27:21.669Z,20.70
2019-05-30T15:29:50.120Z,21.00
2019-05-30T15:32:18.631Z,22.00
2019-05-30T15:34:47.051Z,22.00
2019-05-30T15:37:15.487Z,21.80
2019-05-30T15:39:43.917Z,22.60
2019-05-30T15:42:13.526Z,22.30
2019-05-30T15:44:42.134Z,22.80
2019-05-30T15:47:10.583Z,23.00
2019-05-30T15:49:39.004Z,23.60
2019-05-30T15:52:08.638Z,24.10
2019-05-30T15:54:37.292Z,25.20
2019-05-30T15:57:05.719Z,26.20
2019-05-30T15:59:34.176Z,28.30
2019-05-30T16:02:02.616Z,29.30
2019-05-30T16:04:31.060Z,31.70
2019-05-30T16:06:59.700Z,33.00
2019-05-30T16:09:28.617Z,33.40
2019-05-30T16:11:57.072Z,35.50
2019-05-30T16:14:26.173Z,35.20
2019-05-30T16:16:54.662Z,36.30
2019-05-30T16:19:26.324Z,36.90
2019-05-30T16:21:53.308Z,37.40
2019-05-30T16:24:21.752Z,37.20
2019-05-30T16:26:50.193Z,36.80
2019-05-30T16:29:19.788Z,37.10
2019-05-30T16:31:48.593Z,38.40
2019-05-30T16:34:18.098Z,39.40
2019-05-30T16:36:46.560Z,39.30
2019-05-30T16:39:16.011Z,38.70
2019-05-30T16:41:44.622Z,38.50
2019-05-30T16:44:14.126Z,38.30
2019-05-30T16:46:42.676Z,38.10
2019-05-30T16:49:11.108Z,38.00
2019-05-30T16:51:39.543Z,39.00
2019-05-30T16:54:07.991Z,38.60
2019-05-30T16:56:36.427Z,39.10
2019-05-30T16:59:04.859Z,39.30
2019-05-30T17:01:33.292Z,39.40
2019-05-30T17:04:01.739Z,40.20
2019-05-30T17:06:30.162Z,40.40
2019-05-30T17:08:58.601Z,40.40
2019-05-30T17:11:27.027Z,40.70
2019-05-30T17:13:55.471Z,40.70
2019-05-30T17:16:24.279Z,40.60
2019-05-30T17:18:53.136Z,42.10
2019-05-30T17:21:22.732Z,42.20
2019-05-30T17:23:51.316Z,42.00
2019-05-30T17:26:19.758Z,42.60
2019-05-30T17:28:48.198Z,42.50
2019-05-30T17:31:17.631Z,42.80
2019-05-30T17:33:46.258Z,42.80
2019-05-30T17:36:14.679Z,43.60
2019-05-30T17:38:43.117Z,43.70
2019-05-30T17:41:11.546Z,42.50
2019-05-30T17:43:39.997Z,43.50
2019-05-30T17:46:08.424Z,44.20
2019-05-30T17:48:36.863Z,44.30
2019-05-30T17:51:05.280Z,44.10
2019-05-30T17:53:33.716Z,44.30
2019-05-30T17:56:02.157Z,44.50
2019-05-30T17:58:30.591Z,45.20
2019-05-30T18:00:59.046Z,45.60
2019-05-30T18:03:28.447Z,45.30
2019-05-30T18:05:57.086Z,45.70
2019-05-30T18:08:26.789Z,45.60
2019-05-30T18:10:55.433Z,46.40
2019-05-30T18:13:24.945Z,47.00
2019-05-30T18:15:53.696Z,47.30
2019-05-30T18:18:23.121Z,47.20
2019-05-30T18:20:51.668Z,47.60
2019-05-30T18:23:21.281Z,47.90
2019-05-30T18:25:49.828Z,48.00
2019-05-30T18:28:18.331Z,48.10
2019-05-30T18:30:46.856Z,48.60
2019-05-30T18:33:15.299Z,48.20
2019-05-30T18:35:43.811Z,48.60
2019-05-30T18:38:12.312Z,49.00
2019-05-30T18:40:40.785Z,48.50
2019-05-30T18:43:09.281Z,48.70
2019-05-30T18:45:58.584Z,49.30
2019-05-30T18:48:27.288Z,49.60
2019-05-30T18:50:55.848Z,49.90
2019-05-30T18:53:24.334Z,52.00
2019-05-30T18:55:52.811Z,53.40
2019-05-30T18:58:21.248Z,53.60
2019-05-30T19:00:49.687Z,54.10
2019-05-30T19:03:18.124Z,55.00
2019-05-30T19:05:48.441Z,55.60
2019-05-30T19:08:16.729Z,56.00
2019-05-30T19:10:45.178Z,56.30
2019-05-30T19:13:13.704Z,56.50
2019-05-30T19:15:42.155Z,57.10
2019-05-30T19:18:10.612Z,57.70
2019-05-30T19:20:39.049Z,58.00
2019-05-30T19:23:07.473Z,58.60
2019-05-30T19:25:35.976Z,58.90
2019-05-30T19:28:04.660Z,59.70
2019-05-30T19:30:33.113Z,61.10
2019-05-30T19:33:01.608Z,60.30
2019-05-30T19:35:31.347Z,61.50
2019-05-30T19:37:59.996Z,61.50
2019-05-30T19:40:29.444Z,62.60
2019-05-30T19:42:57.975Z,63.60
2019-05-30T19:45:26.410Z,64.00
2019-05-30T19:47:56.225Z,65.00
2019-05-30T19:50:24.670Z,65.50
2019-05-30T19:52:53.167Z,65.40
2019-05-30T19:55:21.831Z,66.00
2019-05-30T19:57:50.458Z,66.70
2019-05-30T20:00:19.019Z,66.50
2019-05-30T20:02:47.494Z,65.80
2019-05-30T20:05:16.148Z,65.20
2019-05-30T20:07:44.620Z,65.80
2019-05-30T20:10:14.186Z,67.40
2019-05-30T20:12:42.616Z,69.20
2019-05-30T20:15:12.898Z,69.40
2019-05-30T20:17:41.927Z,69.10
2019-05-30T20:20:10.740Z,69.20
2019-05-30T20:22:40.175Z,70.50
2019-05-30T20:25:10.670Z,69.90
2019-05-30T20:27:39.194Z,69.70
2019-05-30T20:30:09.887Z,69.60
2019-05-30T20:32:38.862Z,70.60
2019-05-30T20:35:09.065Z,70.10
2019-05-30T20:37:38.648Z,70.50
2019-05-30T20:40:09.077Z,72.00
2019-05-30T20:42:37.517Z,71.90
2019-05-30T20:45:09.941Z,72.40
2019-05-30T20:47:38.716Z,72.60
2019-05-30T20:50:08.556Z,73.10
2019-05-30T20:52:39.981Z,72.50
2019-05-30T20:55:08.996Z,73.00
2019-05-30T20:57:38.388Z,72.80
2019-05-30T21:00:11.692Z,72.90
2019-05-30T21:02:40.886Z,73.90
2019-05-30T21:05:10.104Z,73.20
2019-05-30T21:07:42.296Z,73.50
2019-05-30T21:10:11.871Z,73.90
2019-05-30T21:12:43.512Z,73.80
2019-05-30T21:15:13.104Z,74.30
2019-05-30T21:17:43.753Z,74.50
2019-05-30T21:20:12.955Z,74.60
2019-05-30T21:22:42.284Z,74.60
2019-05-30T21:25:10.932Z,75.50
2019-05-30T21:27:39.381Z,75.50
2019-05-30T21:30:08.143Z,75.70
2019-05-30T21:32:37.493Z,76.00
2019-05-30T21:35:08.095Z,76.40
2019-05-30T21:37:37.648Z,76.20
2019-05-30T21:40:07.870Z,76.40
2019-05-30T21:42:51.494Z,76.70
2019-05-30T21:45:08.395Z,76.80
2019-05-30T21:47:36.839Z,77.30
2019-05-30T21:50:08.021Z,77.70
2019-05-30T21:52:36.450Z,78.00
2019-05-30T21:55:07.808Z,79.00
2019-05-30T21:57:36.310Z,79.60
2019-05-30T22:00:16.644Z,79.90
2019-05-30T22:02:55.137Z,80.10
2019-05-30T22:05:24.016Z,80.60
2019-05-30T22:11:14.004Z,80.50
2019-05-30T22:13:43.493Z,80.70
2019-05-30T22:16:12.038Z,80.50
2019-05-30T22:18:48.280Z,81.00
2019-05-30T22:21:16.778Z,81.70
2019-05-30T22:23:46.238Z,82.10
2019-05-30T22:26:39.046Z,82.40
2019-05-30T22:29:07.485Z,82.20
2019-05-30T22:31:35.988Z,82.40
2019-05-30T22:34:04.444Z,82.80
2019-05-30T22:36:32.881Z,83.30
2019-05-30T22:39:01.361Z,83.50
2019-05-30T22:55:19.378Z,82.70
2019-05-30T22:57:56.813Z,83.50
2019-05-30T23:04:25.638Z,83.20
2019-05-30T23:11:06.283Z,84.40
2019-05-30T23:16:57.031Z,85.30
2019-05-30T23:19:28.362Z,85.20
2019-05-30T23:21:57.298Z,85.60
2019-05-30T23:24:25.840Z,85.70
2019-05-30T23:26:54.276Z,86.10
2019-05-30T23:29:22.714Z,86.30
2019-05-30T23:31:51.980Z,86.40
2019-05-30T23:34:20.594Z,86.90
2019-05-30T23:36:49.024Z,86.70
2019-05-30T23:39:17.504Z,87.30
2019-05-30T23:41:45.983Z,88.00
2019-05-30T23:44:14.468Z,88.30
2019-05-30T23:46:45.739Z,88.60
2019-05-30T23:51:56.117Z,89.70
2019-05-30T23:54:24.828Z,89.80
2019-05-30T23:56:54.747Z,89.60
2019-05-30T23:59:23.380Z,90.00
